Terminal Aerodrome Forecast
Issued by NWS Albany, NY

Home | Current Version | Previous Version | Text Only | Print | Product List | Glossary On
Versions: 1 2 3 4 5 6 7 8 9 10 11 12 13 14 15 16 17 18
000
FTUS41 KALY 041133
TAFGFL
TAF
KGFL 041133Z 0412/0512 00000KT P6SM VCSH SCT060 OVC120
     FM041300 VRB03KT P6SM -SHRA SCT030 OVC060
      TEMPO 0414/0418 3SM SHRA OVC030
     FM041900 19006KT P6SM VCSH BKN090 OVC120
     FM050200 19003KT P6SM VCSH BKN070 OVC090
     FM050600 00000KT 2SM BR SCT005 SCT050=

USA.gov is the U.S. government's official web portal to all federal, state and local government web resources and services.